EGHQ Airport Information

Runway Information
Runway 13 Length 9006 ft width 285 ft
Elevation 306 ft Threshold 0 ft Heading 121
Runway 31 Length 9006 ft Width 285 ft
Elevation 390 ft Threshold 0 ft Heading 301
Airport Frequencies
Type APP Name APP Frequency 128.725 MHZ
Type ATIS Name ATIS Frequency 23.41 MHZ
Type DIR Name DIRECTOR Frequency 125.55 MHZ
Type GND Name GND Frequency 24.187 MHZ
Type MISC Name ZONE Frequency 25.897 MHZ
Type OPS Name OPS Frequency 27.53 MHZ
Type TWR Name TWR Frequency 123.4 MHZ
Airport Navaids
Type VOR-DME Name Lands End Frequency 114200 KHZ
Type NDB Name St Mawgan Frequency 357 KHZ
Type TACAN Name St Mawgan Frequency 112600 KHZ
Airport Weather Information & NOTAM
ADDS - METARS form results

(0156 UTC 19 September 2020)
Data provider http://aviationweather.gov/metar/data/
 
METAR text: EGHQ 190150Z AUTO 07005KT 050V110 9999 NCD 16/11 Q1015
Conditions at: EGHQ (NEWQUAY , GB) observed 0150 UTC 19 September 2020
Temperature: 16.0°C (61°F)
Dewpoint: 11.0°C (52°F) [RH = 72%]
Pressure (altimeter): 29.97 inches Hg (1015.0 mb)
Winds: from the ENE (70 degrees) at 6 MPH (5 knots; 2.6 m/s)
Visibility: 6 or more miles (10+ km)
Ceiling: at least 12,000 feet AGL
Clouds: sky clear below 12,000 feet AGL
Weather: no significant weather observed at this time

METAR text: EGHQ 190120Z AUTO 06005KT 020V100 9999 NCD 16/10 Q1016
Conditions at: EGHQ (NEWQUAY , GB) observed 0120 UTC 19 September 2020
Temperature: 16.0°C (61°F)
Dewpoint: 10.0°C (50°F) [RH = 68%]
Pressure (altimeter): 30.00 inches Hg (1016.0 mb)
Winds: from the ENE (60 degrees) at 6 MPH (5 knots; 2.6 m/s)
Visibility: 6 or more miles (10+ km)
Ceiling: at least 12,000 feet AGL
Clouds: sky clear below 12,000 feet AGL
Weather: no significant weather observed at this time

Forecast for: EGHQ (NEWQUAY , GB)
Text: TAF EGHQ 182255Z 1900/1909 08009KT CAVOK
Forecast period: 0000 to 0900 UTC 19 September 2020
Forecast type: FROM: standard forecast or significant change
Winds: from the E (80 degrees) at 10 MPH (9 knots; 4.6 m/s)
Visibility: 6 or more miles (10+ km)
Ceiling: unknown
Clouds: missing
Weather: NSW  (no significant weather)
Text: PROB30
Forecast period: 0000 to 0600 UTC 19 September 2020
Forecast type: TEMPORARY: The following changes expected for less than half the time period
Visibility: 4 miles (7 km)
Ceiling: unknown
Clouds: missing
Weather: SHRA  (rain showers)